Time,TemperatureF,DewpointF,PressureIn,WindDirection,WindDirectionDegrees,WindSpeedMPH,WindSpeedGustMPH,Humidity,HourlyPrecipIn,Conditions,Clouds,dailyrainin,SoftwareType,DateUTC
2013-01-03 00:02:00,26.0,19.0,30.23,West,268,1.0,2.0,74,0.00,,,0.02,,2013-01-03 06:02:00,
2013-01-03 00:12:00,26.0,19.0,30.23,West,268,1.0,2.0,74,0.00,,,0.02,,2013-01-03 06:12:00,
2013-01-03 00:22:00,26.0,19.0,30.21,West,271,2.0,3.0,74,0.00,,,0.02,,2013-01-03 06:22:00,
2013-01-03 00:32:00,26.0,19.0,30.21,SW,236,1.0,3.0,74,0.00,,,0.02,,2013-01-03 06:32:00,
2013-01-03 00:42:00,26.0,19.0,30.21,SW,236,1.0,3.0,74,0.00,,,0.02,,2013-01-03 06:42:00,
2013-01-03 00:52:00,25.0,18.0,30.22,SW,233,3.0,5.0,74,0.00,,,0.02,,2013-01-03 06:52:00,
2013-01-03 01:02:00,24.0,17.0,30.22,SW,224,2.0,4.0,75,0.00,,,0.02,,2013-01-03 07:02:00,
2013-01-03 01:12:00,24.0,17.0,30.22,SW,224,2.0,4.0,75,0.00,,,0.02,,2013-01-03 07:12:00,
2013-01-03 01:22:00,24.0,17.0,30.22,WSW,240,2.0,3.0,75,0.00,,,0.02,,2013-01-03 07:22:00,
2013-01-03 01:32:00,24.0,18.0,30.22,WSW,242,1.0,3.0,76,0.00,,,0.02,,2013-01-03 07:32:00,
2013-01-03 01:42:00,24.0,18.0,30.22,WSW,242,1.0,3.0,76,0.00,,,0.02,,2013-01-03 07:42:00,
2013-01-03 01:52:00,23.0,17.0,30.22,WSW,242,1.0,1.0,77,0.00,,,0.02,,2013-01-03 07:52:00,
2013-01-03 02:02:00,23.0,17.0,30.23,WSW,242,0.0,1.0,78,0.00,,,0.02,,2013-01-03 08:02:00,
2013-01-03 02:12:00,23.0,17.0,30.23,WSW,242,0.0,1.0,78,0.00,,,0.02,,2013-01-03 08:12:00,
2013-01-03 02:22:00,23.0,17.0,30.24,WSW,240,1.0,1.0,79,0.00,,,0.02,,2013-01-03 08:22:00,
2013-01-03 02:32:00,23.0,18.0,30.24,West,268,2.0,2.0,80,0.00,,,0.02,,2013-01-03 08:32:00,
2013-01-03 02:42:00,23.0,18.0,30.24,West,268,2.0,2.0,80,0.00,,,0.02,,2013-01-03 08:42:00,
2013-01-03 02:53:00,23.0,18.0,30.24,West,273,0.0,1.0,80,0.00,,,0.02,,2013-01-03 08:53:00,
2013-01-03 03:02:00,23.0,18.0,30.26,West,269,1.0,2.0,81,0.00,,,0.02,,2013-01-03 09:02:00,
2013-01-03 03:12:00,23.0,18.0,30.26,West,269,1.0,2.0,81,0.00,,,0.02,,2013-01-03 09:12:00,
2013-01-03 03:22:00,23.0,18.0,30.26,WSW,257,0.0,1.0,81,0.00,,,0.02,,2013-01-03 09:22:00,
2013-01-03 03:33:00,23.0,18.0,30.28,WSW,255,2.0,2.0,82,0.00,,,0.02,,2013-01-03 09:33:00,
2013-01-03 03:42:00,23.0,18.0,30.28,WSW,255,2.0,2.0,82,0.00,,,0.02,,2013-01-03 09:42:00,
2013-01-03 03:53:00,24.0,19.0,30.26,WNW,285,0.0,4.0,82,0.00,,,0.02,,2013-01-03 09:53:00,
2013-01-03 04:02:00,25.0,20.0,30.27,West,269,1.0,1.0,82,0.00,,,0.02,,2013-01-03 10:02:00,
2013-01-03 04:12:00,25.0,20.0,30.27,West,269,1.0,1.0,82,0.00,,,0.02,,2013-01-03 10:12:00,
2013-01-03 04:22:00,25.0,20.0,30.26,West,276,1.0,2.0,81,0.00,,,0.02,,2013-01-03 10:22:00,
2013-01-03 04:32:00,25.0,20.0,30.27,West,276,1.0,1.0,81,0.00,,,0.02,,2013-01-03 10:32:00,
2013-01-03 04:42:00,25.0,20.0,30.27,West,276,1.0,1.0,81,0.00,,,0.02,,2013-01-03 10:42:00,
2013-01-03 04:53:00,25.0,20.0,30.27,WNW,285,1.0,1.0,81,0.00,,,0.02,,2013-01-03 10:53:00,
2013-01-03 05:02:00,26.0,21.0,30.26,West,272,1.0,1.0,81,0.00,,,0.02,,2013-01-03 11:02:00,
2013-01-03 05:12:00,26.0,21.0,30.26,West,272,1.0,1.0,81,0.00,,,0.02,,2013-01-03 11:12:00,
2013-01-03 05:22:00,26.0,21.0,30.27,West,273,1.0,1.0,81,0.00,,,0.02,,2013-01-03 11:22:00,
2013-01-03 05:33:00,26.0,21.0,30.27,West,273,1.0,1.0,80,0.00,,,0.02,,2013-01-03 11:33:00,
2013-01-03 05:42:00,26.0,21.0,30.27,West,273,1.0,1.0,80,0.00,,,0.02,,2013-01-03 11:42:00,
2013-01-03 05:53:00,26.0,21.0,30.26,West,273,1.0,2.0,81,0.00,,,0.02,,2013-01-03 11:53:00,
2013-01-03 06:02:00,26.0,21.0,30.26,West,273,1.0,1.0,81,0.00,,,0.02,,2013-01-03 12:02:00,
2013-01-03 06:12:00,26.0,21.0,30.26,West,273,1.0,1.0,81,0.00,,,0.02,,2013-01-03 12:12:00,
2013-01-03 06:22:00,26.0,21.0,30.26,NW,305,1.0,2.0,81,0.00,,,0.02,,2013-01-03 12:22:00,
2013-01-03 06:32:00,27.0,22.0,30.27,NNW,330,1.0,2.0,81,0.00,,,0.02,,2013-01-03 12:32:00,
2013-01-03 06:42:00,27.0,22.0,30.27,NNW,330,1.0,2.0,81,0.00,,,0.02,,2013-01-03 12:42:00,
2013-01-03 06:53:00,27.0,22.0,30.27,North,1,2.0,4.0,81,0.00,,,0.02,,2013-01-03 12:53:00,
2013-01-03 07:02:00,27.0,22.0,30.27,North,349,0.0,0.0,80,0.00,,,0.02,,2013-01-03 13:02:00,
2013-01-03 07:12:00,27.0,22.0,30.27,North,349,0.0,0.0,80,0.00,,,0.02,,2013-01-03 13:12:00,
2013-01-03 07:22:00,26.0,21.0,30.28,North,349,0.0,2.0,80,0.00,,,0.02,,2013-01-03 13:22:00,
2013-01-03 07:33:00,24.0,18.0,30.29,NNW,330,1.0,1.0,78,0.00,,,0.02,,2013-01-03 13:33:00,
2013-01-03 07:42:00,24.0,18.0,30.29,NNW,330,1.0,1.0,78,0.00,,,0.02,,2013-01-03 13:42:00,
2013-01-03 07:52:00,23.0,18.0,30.30,WSW,252,0.0,1.0,81,0.00,,,0.02,,2013-01-03 13:52:00,
2013-01-03 08:03:00,23.0,18.0,30.30,WSW,252,0.0,2.0,82,0.00,,,0.02,,2013-01-03 14:03:00,
2013-01-03 08:12:00,23.0,18.0,30.30,WSW,252,0.0,2.0,82,0.00,,,0.02,,2013-01-03 14:12:00,
2013-01-03 08:22:00,23.0,19.0,30.32,WSW,252,0.0,1.0,83,0.00,,,0.02,,2013-01-03 14:22:00,
2013-01-03 08:32:00,25.0,21.0,30.31,WSW,252,1.0,2.0,83,0.00,,,0.02,,2013-01-03 14:32:00,
2013-01-03 08:42:00,25.0,21.0,30.31,WSW,252,1.0,2.0,83,0.00,,,0.02,,2013-01-03 14:42:00,
2013-01-03 08:53:00,28.0,23.0,30.32,WNW,294,2.0,4.0,82,0.00,,,0.02,,2013-01-03 14:53:00,
2013-01-03 09:03:00,31.0,24.0,30.34,NNW,342,1.0,2.0,76,0.00,,,0.02,,2013-01-03 15:03:00,
2013-01-03 09:12:00,30.0,23.0,30.33,NNW,346,2.0,3.0,74,0.00,,,0.02,,2013-01-03 15:12:00,
2013-01-03 09:22:00,30.0,23.0,30.33,NNW,346,2.0,3.0,74,0.00,,,0.02,,2013-01-03 15:22:00,
2013-01-03 09:33:00,30.0,23.0,30.34,NNW,332,2.0,6.0,74,0.00,,,0.02,,2013-01-03 15:33:00,
2013-01-03 09:42:00,30.0,23.0,30.34,NNW,332,2.0,6.0,74,0.00,,,0.02,,2013-01-03 15:42:00,
2013-01-03 09:53:00,31.0,23.0,30.35,WNW,298,1.0,6.0,73,0.00,,,0.02,,2013-01-03 15:53:00,
2013-01-03 10:03:00,34.0,25.0,30.35,SW,227,3.0,4.0,68,0.00,,,0.01,,2013-01-03 16:03:00,
2013-01-03 10:12:00,34.0,25.0,30.35,SW,227,3.0,4.0,68,0.00,,,0.01,,2013-01-03 16:12:00,
2013-01-03 10:22:00,34.0,23.0,30.37,NNW,328,5.0,7.0,65,0.00,,,0.01,,2013-01-03 16:22:00,
2013-01-03 10:33:00,32.0,24.0,30.37,NNW,330,2.0,4.0,71,0.00,,,0.01,,2013-01-03 16:33:00,
2013-01-03 10:43:00,32.0,24.0,30.37,NNW,330,2.0,4.0,71,0.00,,,0.01,,2013-01-03 16:43:00,
2013-01-03 10:53:00,32.0,24.0,30.37,NW,320,2.0,5.0,72,0.00,,,0.01,,2013-01-03 16:53:00,
2013-01-03 11:03:00,33.0,24.0,30.38,NNW,332,3.0,4.0,70,0.00,,,0.01,,2013-01-03 17:03:00,
2013-01-03 11:12:00,33.0,24.0,30.38,NNW,332,3.0,4.0,70,0.00,,,0.01,,2013-01-03 17:12:00,
2013-01-03 11:23:00,34.0,25.0,30.38,NNW,336,4.0,7.0,68,0.00,,,0.01,,2013-01-03 17:23:00,
2013-01-03 11:33:00,34.0,24.0,30.37,NNW,328,2.0,5.0,66,0.00,,,0.01,,2013-01-03 17:33:00,
2013-01-03 11:42:00,34.0,24.0,30.37,NNW,328,2.0,5.0,66,0.00,,,0.01,,2013-01-03 17:42:00,
2013-01-03 11:53:00,35.0,25.0,30.36,NNW,347,3.0,8.0,66,0.00,,,0.01,,2013-01-03 17:53:00,
2013-01-03 12:03:00,35.0,24.0,30.36,NW,326,6.0,8.0,63,0.00,,,0.00,,2013-01-03 18:03:00,
2013-01-03 12:13:00,35.0,24.0,30.36,NW,326,6.0,8.0,63,0.00,,,0.00,,2013-01-03 18:13:00,
2013-01-03 12:22:00,35.0,24.0,30.36,WNW,293,3.0,9.0,63,0.00,,,0.00,,2013-01-03 18:22:00,
2013-01-03 12:33:00,36.0,24.0,30.35,NNW,329,8.0,11.0,61,0.00,,,0.00,,2013-01-03 18:33:00,
2013-01-03 12:42:00,36.0,24.0,30.35,NNW,329,8.0,11.0,61,0.00,,,0.00,,2013-01-03 18:42:00,
2013-01-03 12:53:00,35.0,23.0,30.35,NNW,333,5.0,6.0,62,0.00,,,0.00,,2013-01-03 18:53:00,
2013-01-03 13:03:00,35.0,23.0,30.34,NW,319,6.0,8.0,62,0.00,,,0.00,,2013-01-03 19:03:00,
2013-01-03 13:12:00,35.0,23.0,30.34,NW,319,6.0,8.0,62,0.00,,,0.00,,2013-01-03 19:12:00,
2013-01-03 13:57:00,36.0,23.0,30.34,NNW,343,2.0,7.0,58,0.00,,,0.00,,2013-01-03 19:57:00,
2013-01-03 14:02:00,35.0,21.0,30.33,North,349,4.0,12.0,56,0.00,,,0.00,,2013-01-03 20:02:00,
2013-01-03 14:12:00,35.0,21.0,30.33,North,349,4.0,12.0,56,0.00,,,0.00,,2013-01-03 20:12:00,
2013-01-03 14:22:00,35.0,22.0,30.34,NW,325,9.0,13.0,58,0.00,,,0.00,,2013-01-03 20:22:00,
2013-01-03 14:33:00,35.0,21.0,30.33,NW,313,5.0,9.0,56,0.00,,,0.00,,2013-01-03 20:33:00,
2013-01-03 14:42:00,35.0,21.0,30.33,NW,313,5.0,9.0,56,0.00,,,0.00,,2013-01-03 20:42:00,
2013-01-03 14:53:00,34.0,21.0,30.34,WNW,283,5.0,12.0,58,0.00,,,0.00,,2013-01-03 20:53:00,
2013-01-03 15:02:00,33.0,19.0,30.35,NW,308,5.0,10.0,56,0.00,,,0.00,,2013-01-03 21:02:00,
2013-01-03 15:12:00,33.0,19.0,30.35,NW,308,5.0,10.0,56,0.00,,,0.00,,2013-01-03 21:12:00,
2013-01-03 15:22:00,32.0,19.0,30.35,NNW,341,2.0,5.0,57,0.00,,,0.00,,2013-01-03 21:22:00,
2013-01-03 15:35:00,32.0,18.0,30.36,East,84,2.0,5.0,56,0.00,,,0.00,,2013-01-03 21:35:00,
2013-01-03 15:47:00,32.0,18.0,30.36,East,84,2.0,5.0,56,0.00,,,0.00,,2013-01-03 21:47:00,
2013-01-03 15:53:00,32.0,19.0,30.36,West,271,1.0,10.0,58,0.00,,,0.00,,2013-01-03 21:53:00,
2013-01-03 16:02:00,32.0,19.0,30.35,NW,313,5.0,8.0,58,0.00,,,0.00,,2013-01-03 22:02:00,
2013-01-03 16:12:00,32.0,19.0,30.35,NW,313,5.0,8.0,58,0.00,,,0.00,,2013-01-03 22:12:00,
2013-01-03 16:22:00,32.0,19.0,30.36,NW,313,7.0,9.0,58,0.00,,,0.00,,2013-01-03 22:22:00,
2013-01-03 16:32:00,31.0,19.0,30.35,NNW,328,4.0,8.0,60,0.00,,,0.00,,2013-01-03 22:32:00,
2013-01-03 16:42:00,31.0,19.0,30.35,NNW,328,4.0,8.0,60,0.00,,,0.00,,2013-01-03 22:42:00,
2013-01-03 16:52:00,31.0,19.0,30.35,NNW,344,3.0,5.0,61,0.00,,,0.00,,2013-01-03 22:52:00,
2013-01-03 17:02:00,30.0,18.0,30.35,NW,321,3.0,6.0,61,0.00,,,0.00,,2013-01-03 23:02:00,
2013-01-03 17:12:00,30.0,18.0,30.35,NW,321,3.0,6.0,61,0.00,,,0.00,,2013-01-03 23:12:00,
2013-01-03 17:22:00,30.0,19.0,30.36,NW,321,2.0,5.0,63,0.00,,,0.00,,2013-01-03 23:22:00,
2013-01-03 17:32:00,30.0,19.0,30.35,NW,324,4.0,5.0,63,0.00,,,0.00,,2013-01-03 23:32:00,
2013-01-03 17:42:00,30.0,19.0,30.35,NW,324,4.0,5.0,63,0.00,,,0.00,,2013-01-03 23:42:00,
2013-01-03 17:53:00,30.0,19.0,30.36,NW,307,3.0,4.0,64,0.00,,,0.00,,2013-01-03 23:53:00,
2013-01-03 18:03:00,30.0,20.0,30.40,NNW,330,1.0,5.0,65,0.00,,,0.00,,2013-01-04 00:03:00,
2013-01-03 18:12:00,30.0,20.0,30.40,NNW,330,1.0,5.0,65,0.00,,,0.00,,2013-01-04 00:12:00,
2013-01-03 18:22:00,30.0,20.0,30.38,NW,326,2.0,2.0,66,0.00,,,0.00,,2013-01-04 00:22:00,
2013-01-03 18:32:00,30.0,20.0,30.38,NW,305,1.0,1.0,66,0.00,,,0.00,,2013-01-04 00:32:00,
2013-01-03 18:42:00,30.0,20.0,30.38,NW,305,1.0,1.0,66,0.00,,,0.00,,2013-01-04 00:42:00,
2013-01-03 18:53:00,29.0,19.0,30.38,NW,305,0.0,1.0,67,0.00,,,0.00,,2013-01-04 00:53:00,
2013-01-03 19:02:00,29.0,20.0,30.37,NW,309,1.0,2.0,68,0.00,,,0.00,,2013-01-04 01:02:00,
2013-01-03 19:12:00,29.0,20.0,30.37,NW,309,1.0,2.0,68,0.00,,,0.00,,2013-01-04 01:12:00,
2013-01-03 19:22:00,29.0,20.0,30.39,NW,307,2.0,2.0,68,0.00,,,0.00,,2013-01-04 01:22:00,
2013-01-03 19:32:00,28.0,19.0,30.39,NW,309,1.0,2.0,68,0.00,,,0.00,,2013-01-04 01:32:00,
2013-01-03 19:42:00,28.0,19.0,30.39,NW,309,1.0,2.0,68,0.00,,,0.00,,2013-01-04 01:42:00,
2013-01-03 19:52:00,26.0,17.0,30.39,WNW,284,0.0,1.0,69,0.00,,,0.00,,2013-01-04 01:52:00,
2013-01-03 20:02:00,26.0,18.0,30.39,NNW,348,2.0,2.0,71,0.00,,,0.00,,2013-01-04 02:02:00,
2013-01-03 20:12:00,26.0,18.0,30.39,NNW,348,2.0,2.0,71,0.00,,,0.00,,2013-01-04 02:12:00,
2013-01-03 20:22:00,25.0,17.0,30.39,NW,324,1.0,2.0,71,0.00,,,0.00,,2013-01-04 02:22:00,
2013-01-03 20:32:00,25.0,17.0,30.39,NW,323,1.0,2.0,71,0.00,,,0.00,,2013-01-04 02:32:00,
2013-01-03 20:42:00,25.0,17.0,30.39,NW,323,1.0,2.0,71,0.00,,,0.00,,2013-01-04 02:42:00,
2013-01-03 20:53:00,24.0,16.0,30.40,NW,316,0.0,0.0,72,0.00,,,0.00,,2013-01-04 02:53:00,
2013-01-03 21:02:00,24.0,16.0,30.39,NW,317,0.0,0.0,72,0.00,,,0.00,,2013-01-04 03:02:00,
2013-01-03 21:12:00,24.0,16.0,30.39,NW,317,0.0,0.0,72,0.00,,,0.00,,2013-01-04 03:12:00,
2013-01-03 21:22:00,23.0,16.0,30.38,NW,316,0.0,0.0,73,0.00,,,0.00,,2013-01-04 03:22:00,
2013-01-03 21:32:00,23.0,16.0,30.37,NW,315,2.0,3.0,73,0.00,,,0.00,,2013-01-04 03:32:00,
2013-01-03 21:42:00,23.0,16.0,30.37,NW,315,2.0,3.0,73,0.00,,,0.00,,2013-01-04 03:42:00,
2013-01-03 21:53:00,23.0,16.0,30.38,NW,315,3.0,4.0,73,0.00,,,0.00,,2013-01-04 03:53:00,
2013-01-03 22:02:00,23.0,16.0,30.37,WNW,298,4.0,4.0,73,0.00,,,0.00,,2013-01-04 04:02:00,
2013-01-03 22:12:00,23.0,16.0,30.37,WNW,298,4.0,4.0,73,0.00,,,0.00,,2013-01-04 04:12:00,
2013-01-03 22:22:00,22.0,15.0,30.38,NNW,335,0.0,1.0,73,0.00,,,0.00,,2013-01-04 04:22:00,
2013-01-03 22:32:00,22.0,14.0,30.37,NNW,335,0.0,1.0,72,0.00,,,0.00,,2013-01-04 04:32:00,
2013-01-03 22:42:00,22.0,14.0,30.37,NNW,335,0.0,1.0,72,0.00,,,0.00,,2013-01-04 04:42:00,
2013-01-03 22:52:00,22.0,15.0,30.39,NNW,335,0.0,0.0,73,0.00,,,0.00,,2013-01-04 04:52:00,
2013-01-03 23:03:00,21.0,13.0,30.38,NNW,335,0.0,0.0,72,0.00,,,0.00,,2013-01-04 05:03:00,
2013-01-03 23:12:00,21.0,13.0,30.38,NNW,335,0.0,0.0,72,0.00,,,0.00,,2013-01-04 05:12:00,
2013-01-03 23:22:00,21.0,14.0,30.37,NNW,335,0.0,0.0,73,0.00,,,0.00,,2013-01-04 05:22:00,
2013-01-03 23:33:00,21.0,14.0,30.38,NW,323,2.0,2.0,73,0.00,,,0.00,,2013-01-04 05:33:00,
2013-01-03 23:42:00,21.0,14.0,30.38,NW,323,2.0,2.0,73,0.00,,,0.00,,2013-01-04 05:42:00,
2013-01-03 23:53:00,20.0,13.0,30.36,WNW,289,0.0,1.0,75,0.00,,,0.00,,2013-01-04 05:53:00,